sensor_id;sensor_type;location;lat;lon;timestamp;P1;durP1;ratioP1;P2;durP2;ratioP2
15990;SDS011;8100;50.994;4.538;2024-01-06T00:02:05;3.28;;;0.90;;
15990;SDS011;8100;50.994;4.538;2024-01-06T00:04:51;3.00;;;0.75;;
15990;SDS011;8100;50.994;4.538;2024-01-06T00:07:38;2.35;;;0.82;;
15990;SDS011;8100;50.994;4.538;2024-01-06T00:10:25;1.95;;;1.00;;
15990;SDS011;8100;50.994;4.538;2024-01-06T00:13:14;3.13;;;1.10;;
15990;SDS011;8100;50.994;4.538;2024-01-06T00:16:01;2.63;;;1.25;;
15990;SDS011;8100;50.994;4.538;2024-01-06T00:18:48;2.47;;;1.15;;
15990;SDS011;8100;50.994;4.538;2024-01-06T00:21:35;3.03;;;1.13;;
15990;SDS011;8100;50.994;4.538;2024-01-06T00:24:22;2.08;;;1.10;;
15990;SDS011;8100;50.994;4.538;2024-01-06T00:27:09;3.60;;;1.27;;
15990;SDS011;8100;50.994;4.538;2024-01-06T00:29:57;1.67;;;0.93;;
15990;SDS011;8100;50.994;4.538;2024-01-06T00:32:44;2.95;;;1.02;;
15990;SDS011;8100;50.994;4.538;2024-01-06T00:35:31;3.40;;;1.00;;
15990;SDS011;8100;50.994;4.538;2024-01-06T00:38:18;2.55;;;1.20;;
15990;SDS011;8100;50.994;4.538;2024-01-06T00:41:05;3.45;;;1.23;;
15990;SDS011;8100;50.994;4.538;2024-01-06T00:43:52;1.95;;;0.88;;
15990;SDS011;8100;50.994;4.538;2024-01-06T00:46:40;2.90;;;1.05;;
15990;SDS011;8100;50.994;4.538;2024-01-06T00:49:27;2.47;;;0.82;;
15990;SDS011;8100;50.994;4.538;2024-01-06T00:52:14;1.92;;;1.10;;
15990;SDS011;8100;50.994;4.538;2024-01-06T00:55:01;3.20;;;0.93;;
15990;SDS011;8100;50.994;4.538;2024-01-06T00:57:48;2.90;;;1.00;;
15990;SDS011;8100;50.994;4.538;2024-01-06T01:00:36;1.95;;;0.80;;
15990;SDS011;8100;50.994;4.538;2024-01-06T01:03:24;1.27;;;0.80;;
15990;SDS011;8100;50.994;4.538;2024-01-06T01:06:11;1.80;;;0.63;;
15990;SDS011;8100;50.994;4.538;2024-01-06T01:08:58;1.58;;;0.75;;
15990;SDS011;8100;50.994;4.538;2024-01-06T01:11:45;2.53;;;1.00;;
15990;SDS011;8100;50.994;4.538;2024-01-06T01:14:32;1.02;;;0.63;;
15990;SDS011;8100;50.994;4.538;2024-01-06T01:17:19;0.70;;;0.60;;
15990;SDS011;8100;50.994;4.538;2024-01-06T01:20:08;1.52;;;0.80;;
15990;SDS011;8100;50.994;4.538;2024-01-06T01:22:55;1.95;;;0.80;;
15990;SDS011;8100;50.994;4.538;2024-01-06T01:25:42;3.63;;;0.80;;
15990;SDS011;8100;50.994;4.538;2024-01-06T01:28:29;0.80;;;0.68;;
15990;SDS011;8100;50.994;4.538;2024-01-06T01:31:16;3.65;;;0.90;;
15990;SDS011;8100;50.994;4.538;2024-01-06T01:34:03;2.17;;;0.93;;
15990;SDS011;8100;50.994;4.538;2024-01-06T01:36:51;1.15;;;0.80;;
15990;SDS011;8100;50.994;4.538;2024-01-06T01:39:38;1.50;;;0.98;;
15990;SDS011;8100;50.994;4.538;2024-01-06T01:42:25;2.10;;;0.80;;
15990;SDS011;8100;50.994;4.538;2024-01-06T01:45:13;0.77;;;0.68;;
15990;SDS011;8100;50.994;4.538;2024-01-06T01:48:00;1.42;;;1.13;;
15990;SDS011;8100;50.994;4.538;2024-01-06T01:50:47;1.60;;;0.80;;
15990;SDS011;8100;50.994;4.538;2024-01-06T01:53:36;1.27;;;0.98;;
15990;SDS011;8100;50.994;4.538;2024-01-06T01:56:23;0.65;;;0.65;;
15990;SDS011;8100;50.994;4.538;2024-01-06T01:59:11;3.00;;;1.10;;
15990;SDS011;8100;50.994;4.538;2024-01-06T02:01:59;2.33;;;1.20;;
15990;SDS011;8100;50.994;4.538;2024-01-06T02:04:47;1.23;;;1.10;;
15990;SDS011;8100;50.994;4.538;2024-01-06T02:07:34;2.53;;;1.40;;
15990;SDS011;8100;50.994;4.538;2024-01-06T02:10:22;4.00;;;1.38;;
15990;SDS011;8100;50.994;4.538;2024-01-06T02:13:10;2.47;;;1.50;;
15990;SDS011;8100;50.994;4.538;2024-01-06T02:15:57;3.65;;;1.77;;
15990;SDS011;8100;50.994;4.538;2024-01-06T02:18:44;3.58;;;2.00;;
15990;SDS011;8100;50.994;4.538;2024-01-06T02:21:32;2.65;;;1.92;;
15990;SDS011;8100;50.994;4.538;2024-01-06T02:24:23;3.30;;;1.80;;
15990;SDS011;8100;50.994;4.538;2024-01-06T02:27:10;3.13;;;1.80;;
15990;SDS011;8100;50.994;4.538;2024-01-06T02:29:57;2.38;;;1.90;;
15990;SDS011;8100;50.994;4.538;2024-01-06T02:32:44;3.78;;;2.10;;
15990;SDS011;8100;50.994;4.538;2024-01-06T02:35:31;2.92;;;2.10;;
15990;SDS011;8100;50.994;4.538;2024-01-06T02:38:18;2.95;;;2.17;;
15990;SDS011;8100;50.994;4.538;2024-01-06T02:41:06;4.82;;;2.08;;
15990;SDS011;8100;50.994;4.538;2024-01-06T02:43:54;3.78;;;2.38;;
15990;SDS011;8100;50.994;4.538;2024-01-06T02:46:41;4.53;;;2.83;;
15990;SDS011;8100;50.994;4.538;2024-01-06T02:49:28;4.47;;;2.85;;
15990;SDS011;8100;50.994;4.538;2024-01-06T02:52:15;6.35;;;2.70;;
15990;SDS011;8100;50.994;4.538;2024-01-06T02:55:02;5.53;;;3.10;;
15990;SDS011;8100;50.994;4.538;2024-01-06T02:57:51;5.53;;;3.15;;
15990;SDS011;8100;50.994;4.538;2024-01-06T03:00:38;6.13;;;3.17;;
15990;SDS011;8100;50.994;4.538;2024-01-06T03:03:25;6.25;;;3.38;;
15990;SDS011;8100;50.994;4.538;2024-01-06T03:06:12;3.60;;;2.83;;
15990;SDS011;8100;50.994;4.538;2024-01-06T03:08:59;7.60;;;3.22;;
15990;SDS011;8100;50.994;4.538;2024-01-06T03:11:47;6.93;;;3.08;;
15990;SDS011;8100;50.994;4.538;2024-01-06T03:14:35;8.55;;;3.60;;
15990;SDS011;8100;50.994;4.538;2024-01-06T03:17:22;4.18;;;3.10;;
15990;SDS011;8100;50.994;4.538;2024-01-06T03:20:09;6.97;;;3.25;;
15990;SDS011;8100;50.994;4.538;2024-01-06T03:22:56;7.50;;;3.85;;
15990;SDS011;8100;50.994;4.538;2024-01-06T03:25:43;6.22;;;4.00;;
15990;SDS011;8100;50.994;4.538;2024-01-06T03:28:30;6.75;;;3.83;;
15990;SDS011;8100;50.994;4.538;2024-01-06T03:31:19;7.88;;;3.88;;
15990;SDS011;8100;50.994;4.538;2024-01-06T03:34:07;7.20;;;4.40;;
15990;SDS011;8100;50.994;4.538;2024-01-06T03:36:54;6.22;;;4.00;;
15990;SDS011;8100;50.994;4.538;2024-01-06T03:39:41;8.75;;;4.28;;
15990;SDS011;8100;50.994;4.538;2024-01-06T03:42:28;6.78;;;4.22;;
15990;SDS011;8100;50.994;4.538;2024-01-06T03:45:15;6.05;;;4.18;;
15990;SDS011;8100;50.994;4.538;2024-01-06T03:48:03;7.43;;;4.10;;
15990;SDS011;8100;50.994;4.538;2024-01-06T03:50:51;7.38;;;4.18;;
15990;SDS011;8100;50.994;4.538;2024-01-06T03:53:38;7.72;;;4.57;;
15990;SDS011;8100;50.994;4.538;2024-01-06T03:56:25;10.35;;;4.88;;
15990;SDS011;8100;50.994;4.538;2024-01-06T03:59:12;8.05;;;4.78;;
15990;SDS011;8100;50.994;4.538;2024-01-06T04:01:59;8.43;;;4.75;;
15990;SDS011;8100;50.994;4.538;2024-01-06T04:04:47;8.15;;;4.15;;
15990;SDS011;8100;50.994;4.538;2024-01-06T04:07:34;10.27;;;4.57;;
15990;SDS011;8100;50.994;4.538;2024-01-06T04:10:21;8.80;;;4.38;;
15990;SDS011;8100;50.994;4.538;2024-01-06T04:13:08;6.93;;;4.53;;
15990;SDS011;8100;50.994;4.538;2024-01-06T04:15:56;8.88;;;4.63;;
15990;SDS011;8100;50.994;4.538;2024-01-06T04:18:43;8.63;;;4.55;;
15990;SDS011;8100;50.994;4.538;2024-01-06T04:21:31;7.32;;;4.60;;
15990;SDS011;8100;50.994;4.538;2024-01-06T04:24:18;8.25;;;4.63;;
15990;SDS011;8100;50.994;4.538;2024-01-06T04:27:05;8.57;;;3.97;;
15990;SDS011;8100;50.994;4.538;2024-01-06T04:29:52;7.55;;;3.90;;
15990;SDS011;8100;50.994;4.538;2024-01-06T04:32:39;10.15;;;4.22;;
15990;SDS011;8100;50.994;4.538;2024-01-06T04:35:26;5.43;;;3.50;;
15990;SDS011;8100;50.994;4.538;2024-01-06T04:38:14;5.05;;;3.42;;
15990;SDS011;8100;50.994;4.538;2024-01-06T04:41:01;5.50;;;3.40;;
15990;SDS011;8100;50.994;4.538;2024-01-06T04:43:48;5.03;;;3.10;;
15990;SDS011;8100;50.994;4.538;2024-01-06T04:46:35;5.30;;;3.28;;
15990;SDS011;8100;50.994;4.538;2024-01-06T04:49:22;6.55;;;3.17;;
15990;SDS011;8100;50.994;4.538;2024-01-06T04:52:09;6.22;;;3.08;;
15990;SDS011;8100;50.994;4.538;2024-01-06T04:54:57;5.30;;;2.72;;
15990;SDS011;8100;50.994;4.538;2024-01-06T04:57:44;3.78;;;2.30;;
15990;SDS011;8100;50.994;4.538;2024-01-06T05:00:31;5.22;;;2.25;;
15990;SDS011;8100;50.994;4.538;2024-01-06T05:03:21;8.90;;;2.65;;
15990;SDS011;8100;50.994;4.538;2024-01-06T05:06:08;4.53;;;2.20;;
15990;SDS011;8100;50.994;4.538;2024-01-06T05:08:55;3.75;;;2.33;;
15990;SDS011;8100;50.994;4.538;2024-01-06T05:11:44;4.07;;;1.67;;
15990;SDS011;8100;50.994;4.538;2024-01-06T05:14:31;3.67;;;1.90;;
15990;SDS011;8100;50.994;4.538;2024-01-06T05:17:18;3.58;;;2.20;;
15990;SDS011;8100;50.994;4.538;2024-01-06T05:20:05;4.78;;;1.98;;
15990;SDS011;8100;50.994;4.538;2024-01-06T05:22:53;6.50;;;2.22;;
15990;SDS011;8100;50.994;4.538;2024-01-06T05:25:40;4.93;;;2.22;;
15990;SDS011;8100;50.994;4.538;2024-01-06T05:28:28;3.92;;;1.75;;
15990;SDS011;8100;50.994;4.538;2024-01-06T05:31:15;4.68;;;1.80;;
15990;SDS011;8100;50.994;4.538;2024-01-06T05:34:02;4.82;;;1.98;;
15990;SDS011;8100;50.994;4.538;2024-01-06T05:36:49;7.28;;;2.00;;
15990;SDS011;8100;50.994;4.538;2024-01-06T05:39:37;3.90;;;1.73;;
15990;SDS011;8100;50.994;4.538;2024-01-06T05:42:24;2.28;;;1.38;;
15990;SDS011;8100;50.994;4.538;2024-01-06T05:45:12;3.45;;;1.50;;
15990;SDS011;8100;50.994;4.538;2024-01-06T05:47:59;2.80;;;1.67;;
15990;SDS011;8100;50.994;4.538;2024-01-06T05:50:46;4.88;;;1.58;;
15990;SDS011;8100;50.994;4.538;2024-01-06T05:53:33;3.33;;;1.55;;
15990;SDS011;8100;50.994;4.538;2024-01-06T05:56:22;4.88;;;1.85;;
15990;SDS011;8100;50.994;4.538;2024-01-06T05:59:10;2.90;;;1.70;;
15990;SDS011;8100;50.994;4.538;2024-01-06T06:01:59;3.20;;;1.70;;
15990;SDS011;8100;50.994;4.538;2024-01-06T06:04:46;2.30;;;1.48;;
15990;SDS011;8100;50.994;4.538;2024-01-06T06:07:33;1.95;;;1.60;;
15990;SDS011;8100;50.994;4.538;2024-01-06T06:10:24;3.17;;;1.83;;
15990;SDS011;8100;50.994;4.538;2024-01-06T06:13:15;3.20;;;2.30;;
15990;SDS011;8100;50.994;4.538;2024-01-06T06:16:02;4.28;;;2.22;;
15990;SDS011;8100;50.994;4.538;2024-01-06T06:18:51;2.88;;;2.03;;
15990;SDS011;8100;50.994;4.538;2024-01-06T06:21:38;3.28;;;2.03;;
15990;SDS011;8100;50.994;4.538;2024-01-06T06:24:25;2.50;;;1.70;;
15990;SDS011;8100;50.994;4.538;2024-01-06T06:27:11;3.83;;;1.80;;
15990;SDS011;8100;50.994;4.538;2024-01-06T06:29:58;4.78;;;1.75;;
15990;SDS011;8100;50.994;4.538;2024-01-06T06:32:45;2.85;;;1.77;;
15990;SDS011;8100;50.994;4.538;2024-01-06T06:35:34;3.22;;;1.95;;
15990;SDS011;8100;50.994;4.538;2024-01-06T06:38:21;2.33;;;1.70;;
15990;SDS011;8100;50.994;4.538;2024-01-06T06:41:08;2.72;;;1.60;;
15990;SDS011;8100;50.994;4.538;2024-01-06T06:43:55;3.75;;;1.70;;
15990;SDS011;8100;50.994;4.538;2024-01-06T06:46:42;4.80;;;1.75;;
15990;SDS011;8100;50.994;4.538;2024-01-06T06:49:29;3.42;;;1.95;;
15990;SDS011;8100;50.994;4.538;2024-01-06T06:52:17;3.22;;;1.90;;
15990;SDS011;8100;50.994;4.538;2024-01-06T06:55:04;2.90;;;1.67;;
15990;SDS011;8100;50.994;4.538;2024-01-06T06:57:51;3.35;;;1.90;;
15990;SDS011;8100;50.994;4.538;2024-01-06T07:00:38;4.40;;;2.35;;
15990;SDS011;8100;50.994;4.538;2024-01-06T07:03:25;4.05;;;2.25;;
15990;SDS011;8100;50.994;4.538;2024-01-06T07:06:12;2.67;;;2.28;;
15990;SDS011;8100;50.994;4.538;2024-01-06T07:09:01;4.22;;;2.42;;
15990;SDS011;8100;50.994;4.538;2024-01-06T07:11:50;5.13;;;2.30;;
15990;SDS011;8100;50.994;4.538;2024-01-06T07:14:37;3.95;;;2.70;;
15990;SDS011;8100;50.994;4.538;2024-01-06T07:17:24;4.07;;;2.58;;
15990;SDS011;8100;50.994;4.538;2024-01-06T07:20:11;4.03;;;2.50;;
15990;SDS011;8100;50.994;4.538;2024-01-06T07:23:00;4.05;;;2.20;;
15990;SDS011;8100;50.994;4.538;2024-01-06T07:25:49;4.97;;;2.50;;
15990;SDS011;8100;50.994;4.538;2024-01-06T07:28:36;4.78;;;2.50;;
15990;SDS011;8100;50.994;4.538;2024-01-06T07:31:24;3.83;;;2.42;;
15990;SDS011;8100;50.994;4.538;2024-01-06T07:34:11;4.95;;;2.92;;
15990;SDS011;8100;50.994;4.538;2024-01-06T07:36:58;3.75;;;2.50;;
15990;SDS011;8100;50.994;4.538;2024-01-06T07:39:45;7.20;;;2.80;;
15990;SDS011;8100;50.994;4.538;2024-01-06T07:42:33;4.28;;;2.20;;
15990;SDS011;8100;50.994;4.538;2024-01-06T07:45:20;3.00;;;1.90;;
15990;SDS011;8100;50.994;4.538;2024-01-06T07:48:07;4.47;;;2.20;;
15990;SDS011;8100;50.994;4.538;2024-01-06T07:50:54;4.45;;;2.33;;
15990;SDS011;8100;50.994;4.538;2024-01-06T07:53:41;3.35;;;2.33;;
15990;SDS011;8100;50.994;4.538;2024-01-06T07:56:29;6.25;;;2.53;;
15990;SDS011;8100;50.994;4.538;2024-01-06T07:59:18;4.90;;;2.80;;
15990;SDS011;8100;50.994;4.538;2024-01-06T08:02:05;3.38;;;2.50;;
15990;SDS011;8100;50.994;4.538;2024-01-06T08:04:52;6.30;;;2.58;;
15990;SDS011;8100;50.994;4.538;2024-01-06T08:07:40;5.00;;;2.42;;
15990;SDS011;8100;50.994;4.538;2024-01-06T08:10:27;5.25;;;2.65;;
15990;SDS011;8100;50.994;4.538;2024-01-06T08:13:14;6.57;;;2.13;;
15990;SDS011;8100;50.994;4.538;2024-01-06T08:16:03;4.47;;;2.42;;
15990;SDS011;8100;50.994;4.538;2024-01-06T08:18:51;4.60;;;2.60;;
15990;SDS011;8100;50.994;4.538;2024-01-06T08:21:38;5.13;;;2.58;;
15990;SDS011;8100;50.994;4.538;2024-01-06T08:24:25;2.78;;;1.63;;
15990;SDS011;8100;50.994;4.538;2024-01-06T08:27:12;5.50;;;2.40;;
15990;SDS011;8100;50.994;4.538;2024-01-06T08:29:59;4.65;;;2.58;;
15990;SDS011;8100;50.994;4.538;2024-01-06T08:32:47;3.78;;;2.20;;
15990;SDS011;8100;50.994;4.538;2024-01-06T08:35:34;4.78;;;2.35;;
15990;SDS011;8100;50.994;4.538;2024-01-06T08:38:25;3.33;;;1.83;;
15990;SDS011;8100;50.994;4.538;2024-01-06T08:41:12;3.92;;;1.83;;
15990;SDS011;8100;50.994;4.538;2024-01-06T08:43:59;5.40;;;2.63;;
15990;SDS011;8100;50.994;4.538;2024-01-06T08:46:46;5.65;;;2.42;;
15990;SDS011;8100;50.994;4.538;2024-01-06T08:49:34;3.42;;;2.35;;
15990;SDS011;8100;50.994;4.538;2024-01-06T08:52:21;3.00;;;1.90;;
15990;SDS011;8100;50.994;4.538;2024-01-06T08:55:09;2.90;;;1.90;;
15990;SDS011;8100;50.994;4.538;2024-01-06T08:57:56;2.13;;;1.58;;
15990;SDS011;8100;50.994;4.538;2024-01-06T09:00:43;2.38;;;1.75;;
15990;SDS011;8100;50.994;4.538;2024-01-06T09:03:30;3.00;;;1.70;;
15990;SDS011;8100;50.994;4.538;2024-01-06T09:06:19;1.77;;;1.38;;
15990;SDS011;8100;50.994;4.538;2024-01-06T09:09:06;2.58;;;1.30;;
15990;SDS011;8100;50.994;4.538;2024-01-06T09:11:53;2.75;;;1.50;;
15990;SDS011;8100;50.994;4.538;2024-01-06T09:14:40;3.72;;;1.60;;
15990;SDS011;8100;50.994;4.538;2024-01-06T09:17:27;2.65;;;1.40;;
15990;SDS011;8100;50.994;4.538;2024-01-06T09:20:14;3.08;;;1.77;;
15990;SDS011;8100;50.994;4.538;2024-01-06T09:23:03;2.67;;;1.52;;
15990;SDS011;8100;50.994;4.538;2024-01-06T09:25:51;2.55;;;1.35;;
15990;SDS011;8100;50.994;4.538;2024-01-06T09:28:38;2.40;;;1.60;;
15990;SDS011;8100;50.994;4.538;2024-01-06T09:31:25;3.58;;;1.60;;
15990;SDS011;8100;50.994;4.538;2024-01-06T09:34:12;2.10;;;1.38;;
15990;SDS011;8100;50.994;4.538;2024-01-06T09:36:59;2.20;;;1.65;;
15990;SDS011;8100;50.994;4.538;2024-01-06T09:39:47;3.65;;;1.58;;
15990;SDS011;8100;50.994;4.538;2024-01-06T09:42:34;2.97;;;1.30;;
15990;SDS011;8100;50.994;4.538;2024-01-06T09:45:21;3.97;;;2.00;;
15990;SDS011;8100;50.994;4.538;2024-01-06T09:48:10;2.50;;;1.70;;
15990;SDS011;8100;50.994;4.538;2024-01-06T09:50:59;2.28;;;1.35;;
15990;SDS011;8100;50.994;4.538;2024-01-06T09:53:55;2.55;;;1.75;;
15990;SDS011;8100;50.994;4.538;2024-01-06T09:56:45;8.18;;;2.10;;
15990;SDS011;8100;50.994;4.538;2024-01-06T09:59:33;3.20;;;1.52;;
15990;SDS011;8100;50.994;4.538;2024-01-06T10:02:22;2.40;;;1.63;;
15990;SDS011;8100;50.994;4.538;2024-01-06T10:05:11;2.72;;;1.67;;
15990;SDS011;8100;50.994;4.538;2024-01-06T10:07:59;1.30;;;1.02;;
15990;SDS011;8100;50.994;4.538;2024-01-06T10:10:45;1.35;;;1.20;;
15990;SDS011;8100;50.994;4.538;2024-01-06T10:13:34;2.20;;;1.27;;
15990;SDS011;8100;50.994;4.538;2024-01-06T10:16:22;2.80;;;1.92;;
15990;SDS011;8100;50.994;4.538;2024-01-06T10:19:09;1.85;;;1.30;;
15990;SDS011;8100;50.994;4.538;2024-01-06T10:21:56;2.22;;;1.48;;
15990;SDS011;8100;50.994;4.538;2024-01-06T10:24:47;2.78;;;1.90;;
15990;SDS011;8100;50.994;4.538;2024-01-06T10:27:34;2.55;;;1.50;;
15990;SDS011;8100;50.994;4.538;2024-01-06T10:30:22;2.63;;;1.70;;
15990;SDS011;8100;50.994;4.538;2024-01-06T10:33:11;2.33;;;1.55;;
15990;SDS011;8100;50.994;4.538;2024-01-06T10:36:00;2.58;;;1.27;;
15990;SDS011;8100;50.994;4.538;2024-01-06T10:38:47;4.10;;;1.80;;
15990;SDS011;8100;50.994;4.538;2024-01-06T10:41:34;3.42;;;1.48;;
15990;SDS011;8100;50.994;4.538;2024-01-06T10:44:22;2.08;;;1.58;;
15990;SDS011;8100;50.994;4.538;2024-01-06T10:47:12;4.93;;;1.92;;
15990;SDS011;8100;50.994;4.538;2024-01-06T10:50:01;3.78;;;1.77;;
15990;SDS011;8100;50.994;4.538;2024-01-06T10:52:48;3.97;;;1.90;;
15990;SDS011;8100;50.994;4.538;2024-01-06T10:55:36;2.88;;;1.55;;
15990;SDS011;8100;50.994;4.538;2024-01-06T10:58:25;3.08;;;2.17;;
15990;SDS011;8100;50.994;4.538;2024-01-06T11:01:12;1.98;;;1.48;;
15990;SDS011;8100;50.994;4.538;2024-01-06T11:04:00;2.70;;;1.63;;
15990;SDS011;8100;50.994;4.538;2024-01-06T11:06:49;2.60;;;1.80;;
15990;SDS011;8100;50.994;4.538;2024-01-06T11:09:37;1.65;;;1.35;;
15990;SDS011;8100;50.994;4.538;2024-01-06T11:12:28;4.20;;;2.47;;
15990;SDS011;8100;50.994;4.538;2024-01-06T11:18:30;2.67;;;1.60;;
15990;SDS011;8100;50.994;4.538;2024-01-06T11:21:21;2.10;;;1.50;;
15990;SDS011;8100;50.994;4.538;2024-01-06T11:24:18;2.95;;;1.92;;
15990;SDS011;8100;50.994;4.538;2024-01-06T11:27:06;2.40;;;1.42;;
15990;SDS011;8100;50.994;4.538;2024-01-06T11:29:54;2.35;;;1.85;;
15990;SDS011;8100;50.994;4.538;2024-01-06T11:32:41;2.00;;;1.52;;
15990;SDS011;8100;50.994;4.538;2024-01-06T11:35:31;2.35;;;1.83;;
15990;SDS011;8100;50.994;4.538;2024-01-06T11:38:20;2.05;;;1.60;;
15990;SDS011;8100;50.994;4.538;2024-01-06T11:41:09;2.70;;;1.67;;
15990;SDS011;8100;50.994;4.538;2024-01-06T11:43:57;2.03;;;1.58;;
15990;SDS011;8100;50.994;4.538;2024-01-06T11:46:43;3.53;;;1.60;;
15990;SDS011;8100;50.994;4.538;2024-01-06T11:49:32;2.72;;;1.60;;
15990;SDS011;8100;50.994;4.538;2024-01-06T11:52:19;2.85;;;1.88;;
15990;SDS011;8100;50.994;4.538;2024-01-06T11:55:07;3.92;;;2.22;;
15990;SDS011;8100;50.994;4.538;2024-01-06T11:57:55;1.98;;;1.40;;
15990;SDS011;8100;50.994;4.538;2024-01-06T12:00:43;3.17;;;1.90;;
15990;SDS011;8100;50.994;4.538;2024-01-06T12:03:30;3.72;;;2.00;;
15990;SDS011;8100;50.994;4.538;2024-01-06T12:06:19;2.80;;;2.42;;
15990;SDS011;8100;50.994;4.538;2024-01-06T12:09:07;2.85;;;1.90;;
15990;SDS011;8100;50.994;4.538;2024-01-06T12:12:04;2.50;;;1.80;;
15990;SDS011;8100;50.994;4.538;2024-01-06T12:14:52;2.35;;;1.80;;
15990;SDS011;8100;50.994;4.538;2024-01-06T12:17:39;2.33;;;1.67;;
15990;SDS011;8100;50.994;4.538;2024-01-06T12:20:26;2.17;;;1.50;;
15990;SDS011;8100;50.994;4.538;2024-01-06T12:23:23;4.03;;;2.03;;
15990;SDS011;8100;50.994;4.538;2024-01-06T12:26:11;2.38;;;1.70;;
15990;SDS011;8100;50.994;4.538;2024-01-06T12:28:59;1.83;;;1.35;;
15990;SDS011;8100;50.994;4.538;2024-01-06T12:31:50;2.00;;;1.60;;
15990;SDS011;8100;50.994;4.538;2024-01-06T12:34:37;2.15;;;1.38;;
15990;SDS011;8100;50.994;4.538;2024-01-06T12:37:25;2.38;;;1.60;;
15990;SDS011;8100;50.994;4.538;2024-01-06T12:40:12;3.10;;;2.13;;
15990;SDS011;8100;50.994;4.538;2024-01-06T12:43:02;1.88;;;1.30;;
15990;SDS011;8100;50.994;4.538;2024-01-06T12:45:50;2.92;;;1.70;;
15990;SDS011;8100;50.994;4.538;2024-01-06T12:48:38;3.05;;;1.88;;
15990;SDS011;8100;50.994;4.538;2024-01-06T12:51:25;2.20;;;1.70;;
15990;SDS011;8100;50.994;4.538;2024-01-06T12:54:11;2.45;;;1.83;;
15990;SDS011;8100;50.994;4.538;2024-01-06T12:56:59;4.03;;;2.10;;
15990;SDS011;8100;50.994;4.538;2024-01-06T12:59:46;4.68;;;2.38;;
15990;SDS011;8100;50.994;4.538;2024-01-06T13:02:34;10.02;;;3.47;;
15990;SDS011;8100;50.994;4.538;2024-01-06T13:05:22;4.20;;;2.15;;
15990;SDS011;8100;50.994;4.538;2024-01-06T13:08:09;6.85;;;3.50;;
15990;SDS011;8100;50.994;4.538;2024-01-06T13:10:56;11.63;;;4.38;;
15990;SDS011;8100;50.994;4.538;2024-01-06T13:13:43;4.30;;;2.42;;
15990;SDS011;8100;50.994;4.538;2024-01-06T13:16:30;5.93;;;2.65;;
15990;SDS011;8100;50.994;4.538;2024-01-06T13:19:18;6.13;;;2.53;;
15990;SDS011;8100;50.994;4.538;2024-01-06T13:22:06;6.03;;;2.65;;
15990;SDS011;8100;50.994;4.538;2024-01-06T13:24:53;2.65;;;1.90;;
15990;SDS011;8100;50.994;4.538;2024-01-06T13:27:40;3.08;;;1.77;;
15990;SDS011;8100;50.994;4.538;2024-01-06T13:30:28;4.18;;;2.35;;
15990;SDS011;8100;50.994;4.538;2024-01-06T13:33:15;7.47;;;3.40;;
15990;SDS011;8100;50.994;4.538;2024-01-06T13:36:04;4.78;;;2.53;;
15990;SDS011;8100;50.994;4.538;2024-01-06T13:38:51;5.80;;;2.72;;
15990;SDS011;8100;50.994;4.538;2024-01-06T13:41:38;5.75;;;3.20;;
15990;SDS011;8100;50.994;4.538;2024-01-06T13:44:25;4.10;;;1.67;;
15990;SDS011;8100;50.994;4.538;2024-01-06T13:47:12;8.35;;;4.28;;
15990;SDS011;8100;50.994;4.538;2024-01-06T13:49:59;3.08;;;1.88;;
15990;SDS011;8100;50.994;4.538;2024-01-06T13:52:47;3.40;;;1.85;;
15990;SDS011;8100;50.994;4.538;2024-01-06T13:55:34;4.43;;;1.77;;
15990;SDS011;8100;50.994;4.538;2024-01-06T13:58:21;3.75;;;1.73;;
15990;SDS011;8100;50.994;4.538;2024-01-06T14:01:08;6.63;;;2.67;;
15990;SDS011;8100;50.994;4.538;2024-01-06T14:03:56;6.40;;;2.42;;
15990;SDS011;8100;50.994;4.538;2024-01-06T14:06:43;5.03;;;1.70;;
15990;SDS011;8100;50.994;4.538;2024-01-06T14:09:34;9.38;;;3.60;;
15990;SDS011;8100;50.994;4.538;2024-01-06T14:12:21;7.10;;;2.63;;
15990;SDS011;8100;50.994;4.538;2024-01-06T14:15:08;4.30;;;2.10;;
15990;SDS011;8100;50.994;4.538;2024-01-06T14:17:56;5.28;;;2.63;;
15990;SDS011;8100;50.994;4.538;2024-01-06T14:20:42;5.65;;;2.25;;
15990;SDS011;8100;50.994;4.538;2024-01-06T14:23:30;4.35;;;2.30;;
15990;SDS011;8100;50.994;4.538;2024-01-06T14:26:19;6.05;;;2.45;;
15990;SDS011;8100;50.994;4.538;2024-01-06T14:29:06;2.15;;;1.33;;
15990;SDS011;8100;50.994;4.538;2024-01-06T14:31:53;2.70;;;1.73;;
15990;SDS011;8100;50.994;4.538;2024-01-06T14:34:40;2.45;;;1.70;;
15990;SDS011;8100;50.994;4.538;2024-01-06T14:37:27;2.53;;;1.80;;
15990;SDS011;8100;50.994;4.538;2024-01-06T14:40:14;3.13;;;2.30;;
15990;SDS011;8100;50.994;4.538;2024-01-06T14:43:03;3.03;;;1.92;;
15990;SDS011;8100;50.994;4.538;2024-01-06T14:45:50;2.97;;;2.10;;
15990;SDS011;8100;50.994;4.538;2024-01-06T14:48:37;3.28;;;1.70;;
15990;SDS011;8100;50.994;4.538;2024-01-06T14:51:24;3.53;;;2.20;;
15990;SDS011;8100;50.994;4.538;2024-01-06T14:54:11;4.55;;;1.80;;
15990;SDS011;8100;50.994;4.538;2024-01-06T14:56:58;4.22;;;1.52;;
15990;SDS011;8100;50.994;4.538;2024-01-06T14:59:46;2.15;;;1.85;;
15990;SDS011;8100;50.994;4.538;2024-01-06T15:02:33;2.70;;;1.77;;
15990;SDS011;8100;50.994;4.538;2024-01-06T15:05:20;4.65;;;1.85;;
15990;SDS011;8100;50.994;4.538;2024-01-06T15:08:08;3.58;;;1.60;;
15990;SDS011;8100;50.994;4.538;2024-01-06T15:10:55;2.08;;;1.40;;
15990;SDS011;8100;50.994;4.538;2024-01-06T15:13:42;3.55;;;1.75;;
15990;SDS011;8100;50.994;4.538;2024-01-06T15:16:31;6.95;;;1.73;;
15990;SDS011;8100;50.994;4.538;2024-01-06T15:19:18;1.95;;;1.40;;
15990;SDS011;8100;50.994;4.538;2024-01-06T15:22:08;3.08;;;1.30;;
15990;SDS011;8100;50.994;4.538;2024-01-06T15:24:55;2.03;;;1.60;;
15990;SDS011;8100;50.994;4.538;2024-01-06T15:27:42;1.83;;;1.13;;
15990;SDS011;8100;50.994;4.538;2024-01-06T15:30:29;3.17;;;2.00;;
15990;SDS011;8100;50.994;4.538;2024-01-06T15:33:17;3.10;;;1.45;;
15990;SDS011;8100;50.994;4.538;2024-01-06T15:36:04;2.28;;;1.40;;
15990;SDS011;8100;50.994;4.538;2024-01-06T15:38:52;4.53;;;2.40;;
15990;SDS011;8100;50.994;4.538;2024-01-06T15:41:38;2.28;;;1.40;;
15990;SDS011;8100;50.994;4.538;2024-01-06T15:44:29;1.65;;;0.93;;
15990;SDS011;8100;50.994;4.538;2024-01-06T15:47:18;2.42;;;1.15;;
15990;SDS011;8100;50.994;4.538;2024-01-06T15:50:07;2.13;;;1.27;;
15990;SDS011;8100;50.994;4.538;2024-01-06T15:52:54;1.65;;;1.20;;
15990;SDS011;8100;50.994;4.538;2024-01-06T15:55:41;2.75;;;1.60;;
15990;SDS011;8100;50.994;4.538;2024-01-06T15:58:28;2.78;;;1.45;;
15990;SDS011;8100;50.994;4.538;2024-01-06T16:01:15;2.15;;;1.40;;
15990;SDS011;8100;50.994;4.538;2024-01-06T16:04:02;2.00;;;1.60;;
15990;SDS011;8100;50.994;4.538;2024-01-06T16:06:50;1.65;;;1.10;;
15990;SDS011;8100;50.994;4.538;2024-01-06T16:09:38;3.40;;;1.40;;
15990;SDS011;8100;50.994;4.538;2024-01-06T16:12:25;1.98;;;1.40;;
15990;SDS011;8100;50.994;4.538;2024-01-06T16:15:14;2.03;;;1.25;;
15990;SDS011;8100;50.994;4.538;2024-01-06T16:18:01;2.08;;;1.20;;
15990;SDS011;8100;50.994;4.538;2024-01-06T16:20:48;2.13;;;1.23;;
15990;SDS011;8100;50.994;4.538;2024-01-06T16:23:37;6.07;;;2.47;;
15990;SDS011;8100;50.994;4.538;2024-01-06T16:26:24;6.05;;;3.00;;
15990;SDS011;8100;50.994;4.538;2024-01-06T16:29:11;3.63;;;2.13;;
15990;SDS011;8100;50.994;4.538;2024-01-06T16:31:57;6.93;;;3.10;;
15990;SDS011;8100;50.994;4.538;2024-01-06T16:34:44;4.55;;;1.80;;
15990;SDS011;8100;50.994;4.538;2024-01-06T16:37:32;3.63;;;2.22;;
15990;SDS011;8100;50.994;4.538;2024-01-06T16:40:20;3.63;;;2.10;;
15990;SDS011;8100;50.994;4.538;2024-01-06T16:43:07;2.70;;;1.58;;
15990;SDS011;8100;50.994;4.538;2024-01-06T16:45:54;3.33;;;1.83;;
15990;SDS011;8100;50.994;4.538;2024-01-06T16:48:41;4.07;;;2.30;;
15990;SDS011;8100;50.994;4.538;2024-01-06T16:51:28;2.28;;;1.60;;
15990;SDS011;8100;50.994;4.538;2024-01-06T16:54:15;4.00;;;2.15;;
15990;SDS011;8100;50.994;4.538;2024-01-06T16:57:04;1.73;;;1.20;;
15990;SDS011;8100;50.994;4.538;2024-01-06T16:59:51;4.65;;;2.22;;
15990;SDS011;8100;50.994;4.538;2024-01-06T17:02:38;0.95;;;0.63;;
15990;SDS011;8100;50.994;4.538;2024-01-06T17:05:25;2.08;;;1.27;;
15990;SDS011;8100;50.994;4.538;2024-01-06T17:08:12;5.55;;;2.65;;